Time;durP1;ratioP1;P1;durP2;ratioP2;P2;SDS_P1;SDS_P2;PMS_P1;PMS_P2;Temp;Humidity;BMP_temperature;BMP_pressure;BME280_temperature;BME280_humidity;BME280_pressure;Samples;Min_cycle;Max_cycle;Signal;HPM_P1;HPM_P2
2023/12/27 00:00:50;;;;;;;13.23;2.70;;;4.50;99.90;;;;;;5034101;28;20995;-60
2023/12/27 00:03:18;;;;;;;5.27;1.80;;;4.50;99.90;;;;;;5033905;28;20443;-60
2023/12/27 00:05:44;;;;;;;9.23;3.20;;;4.40;99.90;;;;;;5033500;28;20447;-60
2023/12/27 00:08:11;;;;;;;10.27;1.87;;;4.40;99.90;;;;;;5033953;28;20497;-59
2023/12/27 00:10:37;;;;;;;6.83;1.53;;;4.30;99.90;;;;;;5034215;28;20842;-60
2023/12/27 00:13:04;;;;;;;7.10;1.77;;;4.30;99.90;;;;;;5034157;28;20443;-61
2023/12/27 00:15:30;;;;;;;9.60;2.17;;;4.30;99.90;;;;;;5034116;28;20446;-60
2023/12/27 00:17:57;;;;;;;6.60;2.00;;;4.30;99.90;;;;;;5033194;28;20514;-60
2023/12/27 00:20:25;;;;;;;6.43;2.23;;;4.30;99.90;;;;;;5033680;28;20987;-60
2023/12/27 00:22:51;;;;;;;9.10;2.63;;;4.30;99.90;;;;;;5033403;28;20861;-61
2023/12/27 00:25:18;;;;;;;4.20;1.70;;;4.30;99.90;;;;;;5033996;28;20438;-60
2023/12/27 00:27:44;;;;;;;9.00;2.50;;;4.40;99.90;;;;;;5034063;28;20497;-60
2023/12/27 00:30:12;;;;;;;15.13;2.80;;;4.40;99.90;;;;;;5033768;28;20471;-60
2023/12/27 00:32:38;;;;;;;4.07;1.87;;;4.30;99.90;;;;;;5033694;28;20505;-59
2023/12/27 00:35:05;;;;;;;8.00;2.20;;;4.30;99.90;;;;;;5033595;28;20937;-59
2023/12/27 00:37:33;;;;;;;10.27;2.20;;;4.20;99.90;;;;;;5033142;28;20564;-60
2023/12/27 00:40:00;;;;;;;6.67;1.80;;;4.20;99.90;;;;;;5032323;28;20463;-60
2023/12/27 00:42:27;;;;;;;9.80;2.30;;;4.10;99.90;;;;;;5033437;28;20447;-61
2023/12/27 00:44:53;;;;;;;8.70;2.20;;;4.20;99.90;;;;;;5033500;28;20766;-59
2023/12/27 00:47:20;;;;;;;6.30;1.77;;;4.10;99.90;;;;;;5033083;28;20447;-59
2023/12/27 00:49:46;;;;;;;7.43;1.80;;;4.20;99.90;;;;;;5033274;28;20529;-60
2023/12/27 00:52:13;;;;;;;7.87;2.23;;;4.20;99.90;;;;;;5033268;28;20937;-60
2023/12/27 00:54:41;;;;;;;11.93;2.17;;;4.30;99.90;;;;;;5033220;28;20854;-60
2023/12/27 00:57:07;;;;;;;8.03;1.87;;;4.30;99.90;;;;;;5032907;28;21139;-60
2023/12/27 00:59:34;;;;;;;8.13;1.70;;;4.30;99.90;;;;;;5032913;28;20528;-59
2023/12/27 01:02:01;;;;;;;11.97;3.20;;;4.30;99.90;;;;;;5032291;28;20447;-60
2023/12/27 01:04:28;;;;;;;6.47;2.00;;;4.40;99.90;;;;;;5033167;28;20524;-59
2023/12/27 01:06:54;;;;;;;9.03;2.00;;;4.40;99.90;;;;;;5032899;28;20808;-60
2023/12/27 01:09:21;;;;;;;6.20;2.00;;;4.50;99.90;;;;;;5032103;28;20516;-60
2023/12/27 01:11:49;;;;;;;13.73;2.67;;;4.50;99.90;;;;;;5032844;28;20505;-61
2023/12/27 01:14:16;;;;;;;6.43;1.87;;;4.50;99.90;;;;;;5032655;28;20447;-60
2023/12/27 01:16:43;;;;;;;5.30;2.13;;;4.50;99.90;;;;;;5032812;28;20540;-60
2023/12/27 01:19:11;;;;;;;7.20;2.17;;;4.50;99.90;;;;;;5027097;28;20467;-60
2023/12/27 01:21:37;;;;;;;9.57;2.37;;;4.40;99.90;;;;;;5030124;28;20450;-60
2023/12/27 01:24:05;;;;;;;10.33;2.40;;;4.40;99.90;;;;;;5031281;28;20508;-59
2023/12/27 01:26:31;;;;;;;6.73;1.93;;;4.40;99.90;;;;;;5032433;28;20454;-59
2023/12/27 01:28:59;;;;;;;5.93;1.97;;;4.30;99.90;;;;;;5032374;28;20880;-60
2023/12/27 01:31:26;;;;;;;9.27;1.97;;;4.30;99.90;;;;;;5032405;28;21011;-60
2023/12/27 01:33:52;;;;;;;14.17;2.27;;;4.10;99.90;;;;;;5032567;28;20470;-60
2023/12/27 01:36:20;;;;;;;5.30;1.77;;;4.10;99.90;;;;;;5032098;28;20439;-59
2023/12/27 01:38:46;;;;;;;11.50;3.20;;;4.10;99.90;;;;;;5031776;28;20497;-60
2023/12/27 01:41:13;;;;;;;9.63;2.90;;;4.10;99.90;;;;;;5031981;28;20517;-61
2023/12/27 01:43:40;;;;;;;9.80;2.27;;;4.00;99.90;;;;;;5032660;28;20824;-60
2023/12/27 01:46:09;;;;;;;8.00;2.30;;;3.90;99.90;;;;;;5032428;28;20504;-60
2023/12/27 01:48:36;;;;;;;10.70;2.67;;;3.90;99.90;;;;;;5032143;28;20447;-61
2023/12/27 01:51:03;;;;;;;6.20;1.77;;;3.80;99.90;;;;;;5032007;28;20984;-61
2023/12/27 01:53:30;;;;;;;3.90;1.77;;;3.80;99.90;;;;;;5031689;28;20876;-60
2023/12/27 01:55:57;;;;;;;9.10;1.60;;;3.70;98.10;;;;;;5031201;28;20447;-60
2023/12/27 01:58:24;;;;;;;7.40;2.10;;;3.80;97.60;;;;;;5032204;28;20482;-60
2023/12/27 02:00:52;;;;;;;7.17;1.73;;;3.80;96.10;;;;;;5031836;28;20482;-59
2023/12/27 02:03:21;;;;;;;10.80;2.33;;;3.80;96.00;;;;;;5032177;28;20451;-61
2023/12/27 02:05:50;;;;;;;9.90;1.80;;;3.80;97.80;;;;;;5030372;28;20516;-60
2023/12/27 02:08:17;;;;;;;11.03;2.17;;;3.90;98.50;;;;;;5030324;28;20501;-60
2023/12/27 02:10:44;;;;;;;7.00;2.00;;;3.90;99.70;;;;;;5031447;28;20466;-60
2023/12/27 02:13:10;;;;;;;7.33;2.30;;;3.90;99.90;;;;;;5031414;28;20446;-60
2023/12/27 02:15:37;;;;;;;5.90;1.70;;;3.90;99.90;;;;;;5031559;28;20506;-61
2023/12/27 02:18:07;;;;;;;8.23;3.10;;;3.90;99.90;;;;;;5031391;28;20540;-61
2023/12/27 02:20:35;;;;;;;7.70;1.90;;;3.80;99.90;;;;;;5031734;28;20470;-60
2023/12/27 02:23:06;;;;;;;7.27;2.03;;;3.70;99.20;;;;;;5031485;28;20853;-60
2023/12/27 02:25:34;;;;;;;3.90;1.80;;;3.60;98.40;;;;;;5031018;28;20999;-60
2023/12/27 02:28:01;;;;;;;7.70;2.03;;;3.60;96.30;;;;;;5031298;28;20443;-59
2023/12/27 02:30:30;;;;;;;7.40;1.83;;;3.50;94.90;;;;;;5031695;28;20462;-60
2023/12/27 02:32:56;;;;;;;6.37;2.10;;;3.40;91.30;;;;;;5031412;28;20466;-60
2023/12/27 02:35:23;;;;;;;7.97;2.30;;;3.40;89.30;;;;;;5031633;28;20512;-59
2023/12/27 02:37:49;;;;;;;7.17;2.20;;;3.40;85.10;;;;;;5030788;28;20522;-58
2023/12/27 02:40:16;;;;;;;10.70;1.83;;;3.30;85.50;;;;;;5031567;28;20466;-60
2023/12/27 02:42:44;;;;;;;6.43;2.20;;;3.40;85.60;;;;;;5031722;28;20473;-60
2023/12/27 02:45:11;;;;;;;12.33;2.67;;;3.30;86.80;;;;;;5031437;28;20455;-59
2023/12/27 02:47:37;;;;;;;10.77;2.50;;;3.20;83.90;;;;;;5031418;28;20439;-60
2023/12/27 02:50:04;;;;;;;5.73;1.97;;;3.20;80.60;;;;;;5031328;28;20459;-60
2023/12/27 02:52:31;;;;;;;7.60;3.00;;;3.30;78.40;;;;;;5029426;28;21002;-60
2023/12/27 02:54:57;;;;;;;9.60;2.07;;;3.30;79.30;;;;;;5030989;28;20866;-60
2023/12/27 02:57:24;;;;;;;7.10;1.80;;;3.30;81.50;;;;;;5030510;28;20482;-60
2023/12/27 02:59:52;;;;;;;12.17;2.33;;;3.20;79.90;;;;;;5031021;28;20487;-61
2023/12/27 03:02:18;;;;;;;6.97;1.83;;;3.20;81.00;;;;;;5031657;28;20443;-61
2023/12/27 03:04:45;;;;;;;10.30;3.27;;;3.20;80.00;;;;;;5031022;28;20447;-61
2023/12/27 03:07:12;;;;;;;9.13;2.40;;;3.20;77.30;;;;;;5031389;28;20462;-60
2023/12/27 03:09:38;;;;;;;8.30;2.40;;;3.20;77.30;;;;;;5030727;28;20517;-59
2023/12/27 03:12:06;;;;;;;16.13;2.90;;;3.20;77.70;;;;;;5031302;28;20447;-61
2023/12/27 03:14:32;;;;;;;7.83;2.40;;;3.20;75.60;;;;;;5030977;28;20450;-60
2023/12/27 03:17:01;;;;;;;8.80;1.90;;;3.10;76.90;;;;;;5030440;28;21145;-60
2023/12/27 03:19:27;;;;;;;14.67;2.47;;;3.10;76.70;;;;;;5030413;28;20487;-60
2023/12/27 03:21:54;;;;;;;8.90;2.20;;;3.10;74.00;;;;;;5031214;28;20933;-59
2023/12/27 03:24:20;;;;;;;9.83;2.20;;;3.10;75.50;;;;;;5031048;28;20446;-60
2023/12/27 03:26:47;;;;;;;13.10;2.20;;;3.00;73.40;;;;;;5032387;28;20504;-60
2023/12/27 03:29:14;;;;;;;13.87;2.73;;;3.10;69.30;;;;;;5034572;28;20476;-59
2023/12/27 03:31:40;;;;;;;12.23;2.97;;;3.10;70.30;;;;;;5034760;28;20984;-60
2023/12/27 03:34:08;;;;;;;13.80;2.70;;;3.00;71.20;;;;;;5034720;28;20792;-60
2023/12/27 03:36:35;;;;;;;6.83;2.00;;;3.00;69.60;;;;;;5034742;28;20446;-59
2023/12/27 03:39:02;;;;;;;9.50;2.97;;;3.00;68.80;;;;;;5034126;28;20482;-60
2023/12/27 03:41:29;;;;;;;11.70;2.77;;;3.00;70.20;;;;;;5032324;28;20439;-61
2023/12/27 03:43:58;;;;;;;10.17;2.10;;;3.00;65.10;;;;;;5034604;28;20458;-59
2023/12/27 03:46:25;;;;;;;17.43;3.10;;;3.00;67.50;;;;;;5021878;28;20753;-60
2023/12/27 03:48:52;;;;;;;10.10;2.40;;;3.10;68.50;;;;;;5034154;28;20442;-60
2023/12/27 03:51:22;;;;;;;10.20;2.10;;;3.10;72.40;;;;;;5034388;28;20443;-60
2023/12/27 03:53:49;;;;;;;3.37;1.80;;;3.00;72.00;;;;;;5033943;28;20453;-60
2023/12/27 03:56:15;;;;;;;7.50;1.77;;;3.00;69.20;;;;;;5034080;28;20449;-60
2023/12/27 03:58:43;;;;;;;5.30;2.07;;;3.00;67.60;;;;;;5034164;28;20864;-60
2023/12/27 04:01:10;;;;;;;10.20;3.20;;;3.00;69.30;;;;;;5034198;28;20898;-59
2023/12/27 04:03:37;;;;;;;9.27;2.07;;;3.00;66.30;;;;;;5034355;28;20557;-61
2023/12/27 04:06:04;;;;;;;4.80;2.17;;;2.90;68.80;;;;;;5033599;28;20866;-61
2023/12/27 04:08:32;;;;;;;12.63;2.00;;;2.90;68.00;;;;;;5033151;28;20949;-60
2023/12/27 04:10:59;;;;;;;7.27;1.60;;;2.90;67.60;;;;;;5033394;28;20467;-61
2023/12/27 04:13:25;;;;;;;10.37;2.13;;;2.80;66.00;;;;;;5033958;28;20493;-61
2023/12/27 04:15:52;;;;;;;7.60;2.47;;;2.80;65.00;;;;;;5033976;28;20446;-60
2023/12/27 04:18:18;;;;;;;11.60;1.70;;;2.80;62.70;;;;;;5034256;28;20487;-60
2023/12/27 04:20:45;;;;;;;8.20;2.73;;;2.80;61.90;;;;;;5033595;28;20965;-60
2023/12/27 04:23:12;;;;;;;10.00;2.40;;;2.80;61.40;;;;;;5033560;28;20867;-60
2023/12/27 04:25:39;;;;;;;12.03;2.37;;;2.70;61.20;;;;;;5033842;28;20443;-60
2023/12/27 04:28:06;;;;;;;7.23;2.23;;;2.70;61.90;;;;;;5033754;28;20435;-60
2023/12/27 04:30:33;;;;;;;8.13;2.77;;;2.70;60.70;;;;;;5033474;28;20470;-60
2023/12/27 04:32:59;;;;;;;9.57;2.27;;;2.60;61.30;;;;;;5033715;28;20955;-59
2023/12/27 04:35:26;;;;;;;9.23;2.50;;;2.60;57.30;;;;;;5033709;28;20828;-59
2023/12/27 04:37:52;;;;;;;7.30;2.47;;;2.70;53.80;;;;;;5032059;28;20446;-59
2023/12/27 04:40:19;;;;;;;8.80;2.30;;;2.60;55.30;;;;;;5033991;28;20528;-60
2023/12/27 04:42:47;;;;;;;8.23;2.20;;;2.70;53.50;;;;;;5033119;28;20500;-60
2023/12/27 04:45:14;;;;;;;13.77;2.57;;;2.70;53.80;;;;;;5033553;28;20505;-60
2023/12/27 04:47:41;;;;;;;12.33;2.60;;;2.70;55.30;;;;;;5033212;28;20451;-60
2023/12/27 04:50:09;;;;;;;10.20;2.30;;;2.60;55.20;;;;;;5033471;28;20473;-61
2023/12/27 04:52:35;;;;;;;10.70;2.13;;;2.60;57.60;;;;;;5032440;28;20500;-60
2023/12/27 04:55:02;;;;;;;10.30;1.80;;;2.50;59.30;;;;;;5033280;28;20438;-60
2023/12/27 04:57:28;;;;;;;6.57;2.00;;;2.50;58.50;;;;;;5033098;28;20447;-60
2023/12/27 04:59:56;;;;;;;7.00;2.67;;;2.40;57.40;;;;;;5033200;28;20494;-54
2023/12/27 05:02:23;;;;;;;14.53;3.50;;;2.40;55.60;;;;;;5033237;28;20447;-55
2023/12/27 05:04:49;;;;;;;6.17;2.10;;;2.40;53.50;;;;;;5032959;28;20474;-55
2023/12/27 05:07:16;;;;;;;4.97;1.73;;;2.30;51.90;;;;;;5032756;28;20447;-55
2023/12/27 05:09:43;;;;;;;12.17;3.20;;;2.30;52.00;;;;;;5033083;28;20466;-54
2023/12/27 05:12:09;;;;;;;5.33;1.63;;;2.30;48.80;;;;;;5032686;28;20916;-55
2023/12/27 05:14:36;;;;;;;14.07;2.60;;;2.30;48.90;;;;;;5032470;28;20462;-55
2023/12/27 05:17:04;;;;;;;5.00;1.83;;;2.30;49.90;;;;;;5032791;28;20503;-55
2023/12/27 05:19:31;;;;;;;7.90;2.33;;;2.20;50.30;;;;;;5020769;28;20850;-55
2023/12/27 05:21:57;;;;;;;6.87;2.10;;;2.20;48.90;;;;;;5032313;28;20524;-54
2023/12/27 05:24:24;;;;;;;3.70;2.00;;;2.10;48.90;;;;;;5033133;28;20528;-54
2023/12/27 05:26:50;;;;;;;6.77;2.10;;;2.20;45.20;;;;;;5032820;28;20493;-54
2023/12/27 05:29:17;;;;;;;8.40;2.00;;;2.20;45.00;;;;;;5032076;28;20459;-55
2023/12/27 05:31:43;;;;;;;4.57;2.10;;;2.20;44.00;;;;;;5032424;28;20439;-54
2023/12/27 05:34:11;;;;;;;11.73;2.50;;;2.20;44.40;;;;;;5032196;28;20447;-54
2023/12/27 05:36:38;;;;;;;10.00;2.37;;;2.10;45.20;;;;;;5032011;28;20497;-53
2023/12/27 05:39:04;;;;;;;7.83;2.10;;;2.10;45.20;;;;;;5032437;28;20486;-55
2023/12/27 05:41:31;;;;;;;12.07;2.50;;;2.00;43.90;;;;;;5032676;28;20477;-55
2023/12/27 05:43:58;;;;;;;14.23;1.70;;;2.00;43.30;;;;;;5032482;28;20439;-54
2023/12/27 05:46:25;;;;;;;8.73;2.30;;;2.00;43.00;;;;;;5031865;28;20509;-55
2023/12/27 05:48:51;;;;;;;6.63;2.00;;;2.00;42.20;;;;;;5030971;28;20767;-54
2023/12/27 05:51:19;;;;;;;6.93;1.90;;;2.00;39.50;;;;;;5032674;28;20455;-55
2023/12/27 05:53:46;;;;;;;3.93;1.43;;;2.00;39.00;;;;;;5032368;28;20458;-55
2023/12/27 05:56:13;;;;;;;4.60;1.60;;;2.00;38.50;;;;;;5032118;28;20446;-54
2023/12/27 05:58:39;;;;;;;10.07;2.20;;;2.00;37.80;;;;;;5032166;28;20482;-54
2023/12/27 06:01:06;;;;;;;6.33;1.90;;;2.00;37.30;;;;;;5031997;28;20479;-54
2023/12/27 06:03:32;;;;;;;11.97;2.47;;;2.10;36.50;;;;;;5031638;28;20984;-55
2023/12/27 06:05:59;;;;;;;13.93;2.60;;;2.10;37.20;;;;;;5031545;28;20462;-55
2023/12/27 06:08:27;;;;;;;7.60;2.10;;;2.10;37.70;;;;;;5032500;28;20497;-55
2023/12/27 06:10:53;;;;;;;9.10;2.10;;;2.10;37.00;;;;;;5032122;28;20478;-55
2023/12/27 06:13:20;;;;;;;10.27;2.03;;;2.10;37.00;;;;;;5031988;28;20990;-54
2023/12/27 06:15:46;;;;;;;7.60;1.93;;;2.10;37.10;;;;;;5031630;28;20447;-54
2023/12/27 06:18:13;;;;;;;7.40;1.93;;;2.10;36.90;;;;;;5031433;28;20447;-54
2023/12/27 06:20:40;;;;;;;6.90;2.07;;;2.00;38.70;;;;;;5031392;28;20508;-54
2023/12/27 06:23:06;;;;;;;6.70;2.20;;;2.00;37.90;;;;;;5031357;28;20504;-56
2023/12/27 06:25:34;;;;;;;6.00;1.80;;;2.00;38.80;;;;;;5030551;28;20435;-55
2023/12/27 06:28:01;;;;;;;5.47;2.13;;;2.00;40.30;;;;;;5031668;28;20451;-53
2023/12/27 06:30:27;;;;;;;13.40;3.03;;;1.90;41.80;;;;;;5031611;28;20458;-56
2023/12/27 06:32:54;;;;;;;7.20;2.23;;;1.90;40.10;;;;;;5031742;28;20520;-55
2023/12/27 06:35:21;;;;;;;8.40;2.47;;;1.90;38.80;;;;;;5031924;28;20796;-55
2023/12/27 06:37:48;;;;;;;7.07;2.20;;;1.90;38.80;;;;;;5030960;28;20446;-54
2023/12/27 06:40:15;;;;;;;4.47;1.90;;;1.90;37.60;;;;;;5032145;28;20495;-54
2023/12/27 06:42:43;;;;;;;6.63;1.90;;;1.90;37.10;;;;;;5031269;28;20505;-53
2023/12/27 06:45:10;;;;;;;9.00;1.87;;;1.90;34.70;;;;;;5031530;28;20483;-53
2023/12/27 06:47:37;;;;;;;5.70;2.00;;;1.90;35.90;;;;;;5031425;28;20450;-54
2023/12/27 06:50:05;;;;;;;11.27;2.80;;;1.90;36.40;;;;;;5031333;28;20462;-55
2023/12/27 06:52:31;;;;;;;7.23;2.17;;;1.90;35.80;;;;;;5031175;28;20451;-55
2023/12/27 06:54:58;;;;;;;6.57;2.20;;;1.80;35.70;;;;;;5031152;28;20443;-53
2023/12/27 06:57:24;;;;;;;8.90;1.83;;;1.80;35.30;;;;;;5031428;28;20454;-54
2023/12/27 06:59:52;;;;;;;5.53;2.07;;;1.90;33.70;;;;;;5031370;28;20502;-55
2023/12/27 07:02:19;;;;;;;14.17;2.73;;;1.90;33.30;;;;;;5035519;28;20859;-55
2023/12/27 07:04:46;;;;;;;3.93;2.00;;;1.90;33.90;;;;;;5034947;28;20447;-55
2023/12/27 07:07:13;;;;;;;12.57;2.50;;;1.90;34.40;;;;;;5035483;28;20467;-55
2023/12/27 07:09:40;;;;;;;11.67;3.50;;;1.80;34.90;;;;;;5034965;28;20474;-55
2023/12/27 07:12:09;;;;;;;5.43;1.97;;;1.80;35.80;;;;;;5035130;28;20941;-55
2023/12/27 07:14:35;;;;;;;7.40;2.40;;;1.80;35.90;;;;;;5026056;28;20451;-54
2023/12/27 07:17:04;;;;;;;5.47;1.97;;;1.70;35.60;;;;;;5035475;28;20948;-54
2023/12/27 07:19:30;;;;;;;12.30;3.30;;;1.70;36.60;;;;;;5034759;28;20492;-55
2023/12/27 07:21:58;;;;;;;10.23;2.10;;;1.70;35.40;;;;;;5022796;28;20447;-55
2023/12/27 07:24:24;;;;;;;9.87;2.33;;;1.60;35.10;;;;;;5034774;28;20439;-54
2023/12/27 07:26:51;;;;;;;11.43;2.37;;;1.70;34.50;;;;;;5035179;28;20496;-54
2023/12/27 07:29:17;;;;;;;5.07;2.47;;;1.60;35.30;;;;;;5034970;28;20831;-55
2023/12/27 07:31:44;;;;;;;5.20;1.90;;;1.60;34.10;;;;;;5035238;28;20489;-55
2023/12/27 07:34:12;;;;;;;8.03;3.07;;;1.60;34.60;;;;;;5034743;28;20439;-60
2023/12/27 07:36:38;;;;;;;9.37;2.20;;;1.60;34.60;;;;;;5034708;28;21002;-60
2023/12/27 07:39:06;;;;;;;8.80;2.50;;;1.70;32.10;;;;;;5034695;28;20903;-55
2023/12/27 07:41:33;;;;;;;9.47;2.47;;;1.70;31.40;;;;;;5034170;28;20948;-61
2023/12/27 07:43:59;;;;;;;12.67;2.10;;;1.70;31.60;;;;;;5035054;28;20455;-60
2023/12/27 07:46:26;;;;;;;6.23;2.10;;;1.70;32.30;;;;;;5034436;28;20500;-56
2023/12/27 07:48:52;;;;;;;9.33;2.53;;;1.60;33.00;;;;;;5034452;28;20450;-56
2023/12/27 07:51:20;;;;;;;7.70;2.50;;;1.60;33.80;;;;;;5034381;28;20497;-54
2023/12/27 07:53:50;;;;;;;11.30;2.73;;;1.60;33.80;;;;;;5034120;28;20442;-57
2023/12/27 07:56:18;;;;;;;11.27;2.50;;;1.60;34.10;;;;;;5034313;28;20529;-61
2023/12/27 07:58:45;;;;;;;7.73;2.17;;;1.60;31.50;;;;;;5034458;28;20807;-57
2023/12/27 08:01:11;;;;;;;8.20;2.33;;;1.50;34.20;;;;;;5033816;28;20470;-61
2023/12/27 08:03:39;;;;;;;7.70;2.67;;;1.50;34.30;;;;;;5034549;28;20861;-54
2023/12/27 08:06:07;;;;;;;15.10;5.03;;;1.40;35.10;;;;;;5032055;28;20453;-54
2023/12/27 08:08:35;;;;;;;10.77;2.60;;;1.40;34.70;;;;;;5034390;28;20527;-54
2023/12/27 08:11:03;;;;;;;10.67;2.90;;;1.40;33.80;;;;;;5034141;28;20467;-55
2023/12/27 08:13:30;;;;;;;5.90;2.43;;;1.50;32.00;;;;;;5032274;28;20866;-56
2023/12/27 08:15:57;;;;;;;3.77;2.30;;;1.50;31.10;;;;;;5033819;28;20494;-56
2023/12/27 08:18:23;;;;;;;14.23;3.23;;;1.60;30.20;;;;;;5033842;28;20908;-61
2023/12/27 08:20:50;;;;;;;8.80;2.67;;;1.70;27.20;;;;;;5033613;28;20487;-62
2023/12/27 08:23:17;;;;;;;8.43;2.30;;;1.80;27.40;;;;;;5034034;28;20787;-61
2023/12/27 08:25:45;;;;;;;9.60;2.43;;;2.10;22.60;;;;;;5033497;28;20442;-61
2023/12/27 08:28:11;;;;;;;8.07;2.53;;;2.30;21.30;;;;;;5034099;28;20443;-61
2023/12/27 08:30:38;;;;;;;7.00;3.30;;;2.40;23.00;;;;;;5033757;28;20462;-61
2023/12/27 08:33:06;;;;;;;6.50;2.47;;;2.40;26.20;;;;;;5034072;28;20647;-56
2023/12/27 08:35:33;;;;;;;7.63;2.37;;;2.40;27.00;;;;;;5033226;28;20447;-61
2023/12/27 08:38:00;;;;;;;6.40;3.03;;;2.40;29.10;;;;;;5037854;28;20443;-54
2023/12/27 08:40:27;;;;;;;8.30;2.23;;;2.50;30.30;;;;;;5040771;28;20935;-56
2023/12/27 08:42:56;;;;;;;4.50;2.20;;;2.60;32.10;;;;;;5033663;28;20443;-56
2023/12/27 08:45:22;;;;;;;13.20;2.60;;;2.70;32.20;;;;;;5033236;28;20443;-56
2023/12/27 08:47:49;;;;;;;11.70;2.70;;;2.80;36.60;;;;;;5033095;28;20438;-56
2023/12/27 08:50:15;;;;;;;14.10;2.93;;;2.90;46.00;;;;;;5032849;28;20466;-56
2023/12/27 08:52:42;;;;;;;5.10;2.03;;;3.00;52.30;;;;;;5033349;28;20481;-55
2023/12/27 08:55:10;;;;;;;10.43;2.63;;;3.30;50.40;;;;;;5032803;28;20945;-53
2023/12/27 08:57:37;;;;;;;8.13;2.10;;;3.30;67.60;;;;;;5033014;28;20451;-55
2023/12/27 09:00:10;;;;;;;17.53;2.97;;;3.30;74.10;;;;;;5033064;28;20490;-53
2023/12/27 09:02:36;;;;;;;16.10;2.90;;;3.40;73.30;;;;;;5032437;28;20454;-57
2023/12/27 09:05:03;;;;;;;12.20;2.90;;;3.50;76.00;;;;;;5032648;28;20443;-56
2023/12/27 09:07:31;;;;;;;7.67;2.30;;;3.50;80.10;;;;;;5032400;28;20841;-58
2023/12/27 09:09:58;;;;;;;3.77;2.20;;;3.60;80.50;;;;;;5034947;28;20824;-61
2023/12/27 09:12:24;;;;;;;13.97;3.20;;;3.80;99.90;;;;;;5032767;28;20936;-53
2023/12/27 09:14:52;;;;;;;12.37;2.93;;;4.10;99.90;;;;;;5032874;28;20795;-54
2023/12/27 09:17:20;;;;;;;7.90;2.67;;;4.10;99.90;;;;;;5032209;28;20517;-56
2023/12/27 09:19:46;;;;;;;9.17;3.20;;;4.10;99.90;;;;;;5032310;28;20491;-55
2023/12/27 09:22:13;;;;;;;14.57;3.07;;;4.20;99.90;;;;;;5030819;28;20442;-62
2023/12/27 09:24:41;;;;;;;5.20;2.00;;;4.20;99.90;;;;;;5032726;28;20517;-57
2023/12/27 09:27:07;;;;;;;7.63;2.53;;;4.20;99.90;;;;;;5032730;28;20447;-60
2023/12/27 09:29:34;;;;;;;10.20;3.00;;;4.10;99.90;;;;;;5032337;28;20972;-62
2023/12/27 09:32:01;;;;;;;12.07;3.07;;;4.00;99.90;;;;;;5031966;28;20448;-61
2023/12/27 09:34:29;;;;;;;14.83;2.40;;;4.20;99.90;;;;;;5032529;28;20469;-61
2023/12/27 09:36:55;;;;;;;11.50;3.47;;;4.20;99.90;;;;;;5032575;28;20509;-56
2023/12/27 09:39:22;;;;;;;6.13;2.43;;;4.30;99.90;;;;;;5030330;28;20564;-61
2023/12/27 09:41:49;;;;;;;9.50;2.90;;;4.40;99.90;;;;;;5032440;28;20466;-57
2023/12/27 09:44:19;;;;;;;10.60;2.47;;;4.50;99.90;;;;;;5031048;28;20497;-55
2023/12/27 09:46:46;;;;;;;15.13;3.27;;;4.60;99.90;;;;;;5031735;28;20443;-61
2023/12/27 09:49:13;;;;;;;5.87;2.67;;;4.70;99.90;;;;;;5032271;28;20835;-56
2023/12/27 09:51:41;;;;;;;10.30;2.63;;;5.00;99.90;;;;;;5033188;28;20793;-61
2023/12/27 09:54:08;;;;;;;10.17;2.17;;;5.40;99.90;;;;;;5031826;28;20443;-56
2023/12/27 09:56:37;;;;;;;13.03;3.03;;;6.00;99.90;;;;;;5031859;28;20473;-61
2023/12/27 09:59:07;;;;;;;12.40;3.63;;;6.20;99.90;;;;;;5031915;28;20489;-53
2023/12/27 10:01:38;;;;;;;10.27;2.97;;;7.10;99.90;;;;;;5031748;28;20482;-55
2023/12/27 10:04:11;;;;;;;7.37;2.50;;;7.50;99.90;;;;;;5031471;28;20505;-57
2023/12/27 10:06:44;;;;;;;10.90;2.73;;;7.40;79.40;;;;;;5031496;28;20443;-60
2023/12/27 10:09:11;;;;;;;7.97;2.20;;;7.40;99.90;;;;;;5031550;28;20466;-60
2023/12/27 10:11:39;;;;;;;7.30;1.87;;;7.10;99.90;;;;;;5032171;28;20439;-57
2023/12/27 10:14:07;;;;;;;8.40;2.70;;;7.60;20.10;;;;;;5031858;28;20960;-57
2023/12/27 10:16:35;;;;;;;10.63;2.47;;;7.00;99.90;;;;;;5030938;28;20439;-55
2023/12/27 10:19:03;;;;;;;11.60;3.00;;;7.00;99.90;;;;;;5031238;28;20592;-57
2023/12/27 10:21:41;;;;;;;11.57;2.60;;;7.20;99.90;;;;;;5031109;28;20504;-57
2023/12/27 10:24:10;;;;;;;8.40;2.30;;;7.30;99.90;;;;;;5031360;28;20443;-54
2023/12/27 10:26:37;;;;;;;9.70;3.07;;;7.20;99.90;;;;;;5031565;28;20443;-54
2023/12/27 10:29:04;;;;;;;10.37;3.03;;;6.60;99.90;;;;;;5030842;28;20500;-54
2023/12/27 10:31:30;;;;;;;6.87;2.20;;;6.30;99.90;;;;;;5031480;28;20534;-54
2023/12/27 10:34:02;;;;;;;9.23;2.90;;;5.90;99.90;;;;;;5031031;28;20438;-53
2023/12/27 10:36:30;;;;;;;13.93;2.63;;;5.90;99.90;;;;;;5031933;28;20450;-53
2023/12/27 10:38:59;;;;;;;6.90;2.00;;;5.80;99.90;;;;;;5031164;28;20917;-53
2023/12/27 10:41:27;;;;;;;10.50;2.57;;;5.90;99.90;;;;;;5030737;28;20490;-55
2023/12/27 10:43:54;;;;;;;10.27;2.70;;;5.90;99.90;;;;;;5031387;28;20446;-55
2023/12/27 10:46:21;;;;;;;14.20;2.07;;;5.90;99.90;;;;;;5031067;28;20509;-55
2023/12/27 10:48:52;;;;;;;13.03;2.90;;;6.00;99.90;;;;;;5031115;28;20484;-54
2023/12/27 10:51:20;;;;;;;15.60;2.90;;;5.90;99.90;;;;;;5030953;28;20447;-55
2023/12/27 10:53:50;;;;;;;13.33;2.87;;;6.00;99.90;;;;;;5025793;28;20497;-55
2023/12/27 10:56:22;;;;;;;11.23;2.40;;;6.00;99.90;;;;;;5031062;28;20443;-54
2023/12/27 10:58:53;;;;;;;9.57;2.87;;;6.20;99.90;;;;;;5031414;28;20500;-58
2023/12/27 11:01:20;;;;;;;13.53;3.30;;;6.70;99.90;;;;;;5030298;28;20522;-61
2023/12/27 11:03:48;;;;;;;10.20;2.43;;;6.40;99.90;;;;;;5031540;28;20442;-62
2023/12/27 11:06:16;;;;;;;16.40;2.20;;;6.20;99.90;;;;;;5030558;28;20450;-61
2023/12/27 11:08:45;;;;;;;12.37;2.50;;;6.10;99.90;;;;;;5041057;28;20920;-54
2023/12/27 11:11:13;;;;;;;8.10;2.33;;;5.90;99.90;;;;;;5031205;28;20894;-57
2023/12/27 11:13:41;;;;;;;5.57;2.20;;;6.00;99.90;;;;;;5030389;28;20438;-54
2023/12/27 11:16:10;;;;;;;6.90;2.50;;;6.30;99.90;;;;;;5029688;28;20948;-61
2023/12/27 11:18:39;;;;;;;10.00;2.50;;;6.20;99.90;;;;;;5035366;28;20439;-55
2023/12/27 11:21:06;;;;;;;11.90;2.83;;;6.20;99.90;;;;;;5030427;28;20552;-63
2023/12/27 11:23:33;;;;;;;15.73;3.47;;;6.30;99.90;;;;;;5030764;28;20443;-57
2023/12/27 11:26:00;;;;;;;10.33;2.60;;;6.10;99.90;;;;;;5040592;28;20447;-54
2023/12/27 11:28:27;;;;;;;15.93;2.97;;;5.90;99.90;;;;;;5030487;28;20439;-53
2023/12/27 11:30:54;;;;;;;8.77;2.93;;;5.80;99.90;;;;;;5044637;28;20454;-55
2023/12/27 11:33:23;;;;;;;10.90;3.00;;;5.90;99.90;;;;;;5033709;28;20473;-55
2023/12/27 11:35:51;;;;;;;14.50;4.43;;;5.80;99.90;;;;;;5034552;28;20507;-57
2023/12/27 11:38:20;;;;;;;9.07;2.73;;;6.00;99.90;;;;;;5030297;28;20925;-62
2023/12/27 11:40:46;;;;;;;9.87;2.80;;;6.00;99.90;;;;;;5030533;28;20486;-54
2023/12/27 11:43:20;;;;;;;10.57;3.70;;;6.00;99.90;;;;;;5030805;28;20450;-54
2023/12/27 11:45:58;;;;;;;10.93;2.53;;;5.80;99.90;;;;;;5030543;28;20933;-61
2023/12/27 11:48:27;;;;;;;10.63;2.63;;;5.80;99.90;;;;;;5032947;28;20819;-61
2023/12/27 11:50:55;;;;;;;8.93;2.50;;;5.70;99.90;;;;;;5032072;28;20467;-61
2023/12/27 11:53:24;;;;;;;12.20;3.30;;;5.60;99.90;;;;;;5033133;28;20816;-61
2023/12/27 11:55:52;;;;;;;9.90;3.00;;;5.70;99.90;;;;;;5034253;28;20447;-53
2023/12/27 11:58:30;;;;;;;10.13;3.20;;;5.60;99.90;;;;;;5034322;28;20451;-57
2023/12/27 12:00:57;;;;;;;6.47;2.50;;;5.60;99.90;;;;;;5033342;28;20486;-53
2023/12/27 12:03:33;;;;;;;10.27;2.70;;;5.60;99.90;;;;;;5036536;28;20924;-61
2023/12/27 12:06:13;;;;;;;8.10;2.83;;;5.70;99.90;;;;;;5030791;28;20442;-61
2023/12/27 12:08:45;;;;;;;17.20;3.20;;;5.70;99.90;;;;;;5027595;28;20998;-55
2023/12/27 12:11:15;;;;;;;11.63;3.00;;;5.80;99.90;;;;;;5034027;28;20458;-61
2023/12/27 12:13:42;;;;;;;9.27;2.40;;;6.20;99.90;;;;;;5033591;28;20538;-56
2023/12/27 12:16:09;;;;;;;7.10;2.63;;;6.40;99.90;;;;;;5033711;28;20443;-56
2023/12/27 12:18:39;;;;;;;7.43;3.10;;;6.40;99.90;;;;;;5031569;28;20477;-54
2023/12/27 12:21:06;;;;;;;12.10;3.07;;;6.30;99.90;;;;;;5033435;28;20490;-57
2023/12/27 12:23:33;;;;;;;8.83;3.20;;;6.30;99.90;;;;;;5033551;28;20512;-58
2023/12/27 12:26:01;;;;;;;7.47;2.70;;;6.20;99.90;;;;;;5032689;28;20447;-58
2023/12/27 12:28:28;;;;;;;12.93;2.80;;;6.30;99.90;;;;;;5032231;28;20447;-56
2023/12/27 12:30:56;;;;;;;13.60;3.13;;;6.30;99.90;;;;;;5033430;28;21002;-56
2023/12/27 12:33:23;;;;;;;14.63;3.63;;;6.20;99.90;;;;;;5034931;28;20834;-54
2023/12/27 12:35:51;;;;;;;7.60;2.57;;;6.00;99.90;;;;;;5033454;28;20443;-61
2023/12/27 12:38:18;;;;;;;9.90;3.30;;;6.00;99.90;;;;;;5033514;28;20870;-56
2023/12/27 12:40:45;;;;;;;12.33;2.90;;;5.90;99.90;;;;;;5033342;28;20858;-56
2023/12/27 12:43:13;;;;;;;6.83;3.37;;;5.80;99.90;;;;;;5032674;28;20857;-57
2023/12/27 12:45:40;;;;;;;11.13;4.17;;;5.70;99.90;;;;;;5033323;28;20443;-61
2023/12/27 12:48:07;;;;;;;5.87;2.90;;;5.70;99.90;;;;;;5032934;28;20454;-56
2023/12/27 12:50:34;;;;;;;7.03;2.90;;;5.60;99.90;;;;;;5033070;28;21569;-57
2023/12/27 12:53:15;;;;;;;8.20;3.13;;;5.60;99.90;;;;;;5033369;28;20485;-57